Terminal Aerodrome Forecast
Issued by NWS San Angelo, TX

Home | Current Version | Previous Version | Text Only | Print | Product List | Glossary On
Versions: 1 2 3 4 5 6 7 8 9 10 11 12 13 14
000
FTUS44 KSJT 290500
TAFSJT
TAF
KSJT 290536Z 2906/3006 21009KT P6SM SCT250
     FM291300 01010KT P6SM BKN250
     FM291900 04015G22KT P6SM BKN100
     FM300500 04011KT P6SM BKN080=

USA.gov is the U.S. government's official web portal to all federal, state and local government web resources and services.